Time;durP1;ratioP1;P1;durP2;ratioP2;P2;SDS_P1;SDS_P2;PMS_P1;PMS_P2;Temp;Humidity;BMP_temperature;BMP_pressure;BME280_temperature;BME280_humidity;BME280_pressure;Samples;Min_cycle;Max_cycle;Signal;HPM_P1;HPM_P2
2022/11/27 00:00:23;;;;;;;0.70;0.47;;;;;;;;;;6246195;23;20015;-63
2022/11/27 00:02:49;;;;;;;1.58;0.93;;;;;;;;;;6245690;23;20012;-63
2022/11/27 00:05:15;;;;;;;1.23;0.63;;;;;;;;;;6245800;23;20036;-63
2022/11/27 00:07:41;;;;;;;2.88;0.47;;;;;;;;;;6245840;23;20008;-63
2022/11/27 00:10:08;;;;;;;0.40;0.30;;;;;;;;;;6246263;23;20008;-63
2022/11/27 00:12:34;;;;;;;0.20;0.20;;;;;;;;;;6245987;23;20075;-63
2022/11/27 00:15:00;;;;;;;0.22;0.15;;;;;;;;;;6245906;23;20003;-63
2022/11/27 00:17:26;;;;;;;0.98;0.40;;;;;;;;;;6245422;23;20004;-63
2022/11/27 00:19:52;;;;;;;0.50;0.40;;;;;;;;;;6245637;23;20468;-63
2022/11/27 00:22:18;;;;;;;0.63;0.40;;;;;;;;;;6245871;23;20000;-63
2022/11/27 00:24:44;;;;;;;1.48;0.50;;;;;;;;;;6245643;23;20000;-63
2022/11/27 00:27:10;;;;;;;1.17;0.32;;;;;;;;;;6246116;23;20007;-63
2022/11/27 00:29:37;;;;;;;0.68;0.30;;;;;;;;;;6245720;22;20079;-63
2022/11/27 00:32:06;;;;;;;0.80;0.40;;;;;;;;;;6245348;23;20008;-63
2022/11/27 00:34:33;;;;;;;1.98;0.32;;;;;;;;;;6245896;22;20031;-63
2022/11/27 00:36:59;;;;;;;4.32;0.40;;;;;;;;;;6245542;23;20007;-63
2022/11/27 00:39:26;;;;;;;0.75;0.40;;;;;;;;;;6245844;23;20054;-63
2022/11/27 00:41:52;;;;;;;0.50;0.30;;;;;;;;;;6245481;22;20008;-63
2022/11/27 00:44:18;;;;;;;2.80;0.55;;;;;;;;;;6245860;23;20008;-63
2022/11/27 00:46:45;;;;;;;0.32;0.30;;;;;;;;;;6245050;23;20057;-63
2022/11/27 00:49:12;;;;;;;2.25;0.63;;;;;;;;;;6245839;23;20000;-63
2022/11/27 00:51:39;;;;;;;0.80;0.60;;;;;;;;;;6245467;23;20008;-63
2022/11/27 00:54:05;;;;;;;2.72;0.68;;;;;;;;;;6245466;23;20016;-63
2022/11/27 00:56:33;;;;;;;1.65;0.22;;;;;;;;;;6245697;23;20018;-63
2022/11/27 00:58:59;;;;;;;2.30;0.32;;;;;;;;;;6245283;23;20401;-63
2022/11/27 01:01:33;;;;;;;0.60;0.30;;;;;;;;;;6244709;23;20004;-63
2022/11/27 01:04:00;;;;;;;0.30;0.30;;;;;;;;;;6245146;23;20477;-63
2022/11/27 01:06:27;;;;;;;0.93;0.50;;;;;;;;;;6245398;23;20008;-63
2022/11/27 01:08:54;;;;;;;1.60;0.60;;;;;;;;;;6244754;23;20000;-63
2022/11/27 01:11:21;;;;;;;1.35;0.40;;;;;;;;;;6245135;23;20008;-63
2022/11/27 01:13:48;;;;;;;3.08;0.60;;;;;;;;;;6245187;23;20031;-63
2022/11/27 01:16:16;;;;;;;0.73;0.50;;;;;;;;;;6244940;23;20000;-64
2022/11/27 01:18:43;;;;;;;1.50;0.50;;;;;;;;;;6244971;23;20012;-64
2022/11/27 01:21:10;;;;;;;1.27;0.50;;;;;;;;;;6245248;23;20042;-64
2022/11/27 01:23:36;;;;;;;2.85;0.90;;;;;;;;;;6245375;23;20091;-63
2022/11/27 01:26:03;;;;;;;3.45;1.00;;;;;;;;;;6245039;23;20004;-64
2022/11/27 01:28:30;;;;;;;2.65;0.60;;;;;;;;;;6245326;23;20442;-64
2022/11/27 01:30:56;;;;;;;2.22;0.40;;;;;;;;;;6243006;23;20003;-64
2022/11/27 01:33:22;;;;;;;3.47;0.60;;;;;;;;;;6245195;23;20016;-64
2022/11/27 01:35:59;;;;;;;1.08;0.70;;;;;;;;;;6245112;23;20046;-64
2022/11/27 01:38:25;;;;;;;0.52;0.40;;;;;;;;;;6245247;23;20053;-64
2022/11/27 01:41:05;;;;;;;3.35;0.60;;;;;;;;;;6244714;23;20004;-64
2022/11/27 01:43:37;;;;;;;1.80;0.40;;;;;;;;;;6244753;23;20008;-64
2022/11/27 01:46:05;;;;;;;2.75;1.10;;;;;;;;;;6244665;22;20004;-64
2022/11/27 01:48:31;;;;;;;3.50;0.90;;;;;;;;;;6245033;23;20079;-64
2022/11/27 01:50:57;;;;;;;3.13;0.95;;;;;;;;;;6244501;23;20469;-64
2022/11/27 01:53:24;;;;;;;2.88;0.80;;;;;;;;;;6244982;23;20079;-64
2022/11/27 01:55:53;;;;;;;1.17;0.70;;;;;;;;;;6244899;23;20036;-64
2022/11/27 01:58:21;;;;;;;2.17;0.70;;;;;;;;;;6244360;23;20008;-64
2022/11/27 02:00:47;;;;;;;0.75;0.55;;;;;;;;;;6244888;22;20038;-64
2022/11/27 02:03:14;;;;;;;5.30;0.88;;;;;;;;;;6243064;23;20457;-64
2022/11/27 02:05:41;;;;;;;1.48;0.60;;;;;;;;;;6244632;22;20031;-64
2022/11/27 02:08:08;;;;;;;1.52;0.60;;;;;;;;;;6244540;23;20015;-63
2022/11/27 02:10:55;;;;;;;1.90;0.80;;;;;;;;;;6244916;23;20061;-63
2022/11/27 02:13:27;;;;;;;3.38;0.80;;;;;;;;;;6244333;23;20011;-63
2022/11/27 02:15:53;;;;;;;1.88;0.65;;;;;;;;;;6244802;23;20082;-63
2022/11/27 02:18:38;;;;;;;3.53;0.90;;;;;;;;;;6244731;23;20046;-63
2022/11/27 02:21:16;;;;;;;1.55;0.68;;;;;;;;;;6244488;23;20090;-64
2022/11/27 02:24:09;;;;;;;0.52;0.40;;;;;;;;;;6244722;23;20083;-63
2022/11/27 02:26:35;;;;;;;;;;;;;;;;;;6245376;23;20087;-63
2022/11/27 02:29:01;;;;;;;2.22;0.73;;;;;;;;;;6244197;23;19928;-63
2022/11/27 02:31:36;;;;;;;3.38;1.00;;;;;;;;;;6244953;23;20426;-63
2022/11/27 02:34:23;;;;;;;3.78;1.05;;;;;;;;;;6244635;22;20438;-63
2022/11/27 02:36:52;;;;;;;6.78;0.90;;;;;;;;;;6244603;23;20004;-64
2022/11/27 02:39:22;;;;;;;3.50;1.10;;;;;;;;;;6244621;23;20366;-64
2022/11/27 02:41:57;;;;;;;9.60;1.13;;;;;;;;;;6244292;23;20008;-63
2022/11/27 02:44:25;;;;;;;9.05;1.77;;;;;;;;;;6244562;23;20456;-64
2022/11/27 02:46:52;;;;;;;7.80;1.23;;;;;;;;;;6244660;23;19996;-64
2022/11/27 02:49:19;;;;;;;8.85;1.33;;;;;;;;;;6244295;23;20085;-63
2022/11/27 02:51:54;;;;;;;6.85;1.50;;;;;;;;;;6244607;23;20003;-64
2022/11/27 02:54:25;;;;;;;3.90;1.35;;;;;;;;;;6244437;23;20552;-64
2022/11/27 02:56:52;;;;;;;6.15;1.60;;;;;;;;;;6244226;23;20008;-64
2022/11/27 02:59:19;;;;;;;5.57;1.50;;;;;;;;;;6244287;23;20035;-64
2022/11/27 03:01:52;;;;;;;12.50;2.13;;;;;;;;;;6245074;23;20004;-64
2022/11/27 03:04:22;;;;;;;8.82;1.52;;;;;;;;;;6244060;23;20427;-64
2022/11/27 03:06:51;;;;;;;5.55;1.40;;;;;;;;;;6244346;23;20016;-63
2022/11/27 03:09:38;;;;;;;10.18;2.13;;;;;;;;;;6244163;23;20014;-63
2022/11/27 03:12:05;;;;;;;7.85;1.80;;;;;;;;;;6243120;23;20000;-64
2022/11/27 03:14:31;;;;;;;9.43;1.98;;;;;;;;;;6244266;23;20004;-63
2022/11/27 03:17:00;;;;;;;9.82;1.80;;;;;;;;;;6244460;23;20008;-64
2022/11/27 03:19:29;;;;;;;11.75;1.88;;;;;;;;;;6244320;23;20011;-64
2022/11/27 03:21:56;;;;;;;20.08;2.22;;;;;;;;;;6244497;23;20008;-64
2022/11/27 03:24:23;;;;;;;11.85;2.10;;;;;;;;;;6245162;23;20011;-64
2022/11/27 03:26:49;;;;;;;9.32;1.83;;;;;;;;;;6246162;23;20008;-64
2022/11/27 03:29:23;;;;;;;11.38;2.08;;;;;;;;;;6245990;23;20043;-63
2022/11/27 03:31:49;;;;;;;14.73;2.97;;;;;;;;;;6246577;23;20290;-64
2022/11/27 03:34:15;;;;;;;10.73;2.05;;;;;;;;;;6246032;23;20061;-64
2022/11/27 03:36:42;;;;;;;7.45;2.08;;;;;;;;;;6246211;23;20142;-64
2022/11/27 03:39:08;;;;;;;9.85;1.80;;;;;;;;;;6245875;23;20199;-64
2022/11/27 03:41:50;;;;;;;11.23;2.28;;;;;;;;;;6245915;23;20353;-64
2022/11/27 03:44:25;;;;;;;7.13;1.58;;;;;;;;;;6245572;23;20008;-64
2022/11/27 03:46:55;;;;;;;8.25;1.75;;;;;;;;;;6246197;22;20358;-63
2022/11/27 03:49:38;;;;;;;13.38;2.50;;;;;;;;;;6245805;23;20019;-63
2022/11/27 03:52:07;;;;;;;19.40;2.78;;;;;;;;;;6245892;23;20000;-63
2022/11/27 03:54:48;;;;;;;8.43;2.00;;;;;;;;;;6245458;23;20422;-64
2022/11/27 03:57:21;;;;;;;11.18;2.33;;;;;;;;;;6245953;23;20024;-64
2022/11/27 03:59:50;;;;;;;10.50;2.35;;;;;;;;;;6246319;23;20008;-64
2022/11/27 04:02:16;;;;;;;9.55;2.05;;;;;;;;;;6244357;23;20008;-63
2022/11/27 04:04:42;;;;;;;15.27;2.28;;;;;;;;;;6245781;22;20010;-63
2022/11/27 04:07:15;;;;;;;17.23;2.95;;;;;;;;;;6245828;23;20079;-64
2022/11/27 04:09:41;;;;;;;12.20;2.40;;;;;;;;;;6245702;23;20446;-64
2022/11/27 04:12:07;;;;;;;11.85;2.65;;;;;;;;;;6245723;23;20006;-63
2022/11/27 04:14:33;;;;;;;12.32;2.55;;;;;;;;;;6245882;23;20008;-64
2022/11/27 04:16:59;;;;;;;13.40;2.75;;;;;;;;;;6246175;23;20004;-63
2022/11/27 04:19:25;;;;;;;15.30;2.70;;;;;;;;;;6245439;23;20012;-64
2022/11/27 04:21:51;;;;;;;9.32;2.47;;;;;;;;;;6245984;23;20086;-64
2022/11/27 04:24:18;;;;;;;21.77;2.78;;;;;;;;;;6245233;23;20130;-64
2022/11/27 04:26:44;;;;;;;17.38;2.70;;;;;;;;;;6246235;23;20103;-64
2022/11/27 04:29:10;;;;;;;11.88;2.83;;;;;;;;;;6245938;23;20004;-64
2022/11/27 04:31:36;;;;;;;16.88;3.08;;;;;;;;;;6246070;23;20378;-64
2022/11/27 04:34:02;;;;;;;11.80;3.03;;;;;;;;;;6245759;23;20069;-64
2022/11/27 04:36:28;;;;;;;13.63;2.85;;;;;;;;;;6244923;23;20388;-63
2022/11/27 04:38:54;;;;;;;16.67;2.63;;;;;;;;;;6245481;23;20040;-63
2022/11/27 04:41:20;;;;;;;19.88;2.67;;;;;;;;;;6245516;23;20079;-63
2022/11/27 04:43:46;;;;;;;13.40;2.55;;;;;;;;;;6245792;23;20011;-63
2022/11/27 04:46:12;;;;;;;18.52;3.38;;;;;;;;;;6245450;23;20079;-63
2022/11/27 04:48:38;;;;;;;17.60;3.15;;;;;;;;;;6245618;23;20075;-63
2022/11/27 04:51:05;;;;;;;24.10;3.45;;;;;;;;;;6245475;23;20054;-63
2022/11/27 04:53:31;;;;;;;12.48;3.03;;;;;;;;;;6244946;23;20015;-64
2022/11/27 04:55:57;;;;;;;18.10;3.80;;;;;;;;;;6245904;23;20413;-63
2022/11/27 04:58:23;;;;;;;13.10;3.45;;;;;;;;;;6245344;23;20026;-63
2022/11/27 05:00:49;;;;;;;18.40;2.80;;;;;;;;;;6245490;23;20494;-64
2022/11/27 05:03:15;;;;;;;9.20;2.40;;;;;;;;;;6245389;23;20012;-64
2022/11/27 05:05:41;;;;;;;21.45;3.67;;;;;;;;;;6245112;23;20389;-63
2022/11/27 05:08:07;;;;;;;15.35;2.67;;;;;;;;;;6244810;23;20004;-64
2022/11/27 05:10:33;;;;;;;18.63;3.40;;;;;;;;;;6244770;23;20461;-64
2022/11/27 05:12:59;;;;;;;11.70;2.85;;;;;;;;;;6245482;23;20008;-64
2022/11/27 05:15:25;;;;;;;19.05;2.50;;;;;;;;;;6245003;23;20000;-63
2022/11/27 05:17:52;;;;;;;15.13;2.92;;;;;;;;;;6245222;23;20012;-64
2022/11/27 05:20:18;;;;;;;10.30;2.50;;;;;;;;;;6245171;23;20346;-64
2022/11/27 05:22:44;;;;;;;17.15;3.05;;;;;;;;;;6244542;23;20079;-64
2022/11/27 05:25:11;;;;;;;13.88;3.20;;;;;;;;;;6245385;22;20079;-63
2022/11/27 05:27:37;;;;;;;15.27;3.17;;;;;;;;;;6244828;23;20062;-63
2022/11/27 05:30:03;;;;;;;17.33;2.75;;;;;;;;;;6245073;23;20004;-63
2022/11/27 05:32:29;;;;;;;17.40;3.83;;;;;;;;;;6244813;23;20130;-64
2022/11/27 05:34:55;;;;;;;10.20;3.22;;;;;;;;;;6245324;23;20004;-63
2022/11/27 05:37:21;;;;;;;14.73;3.90;;;;;;;;;;6244682;23;20011;-64
2022/11/27 05:39:47;;;;;;;15.45;3.28;;;;;;;;;;6245071;23;20067;-64
2022/11/27 05:42:14;;;;;;;20.15;3.85;;;;;;;;;;6245068;23;20004;-64
2022/11/27 05:44:40;;;;;;;22.80;4.07;;;;;;;;;;6244876;23;20350;-64
2022/11/27 05:47:06;;;;;;;24.88;4.03;;;;;;;;;;6243387;23;20382;-64
2022/11/27 05:49:32;;;;;;;22.67;4.38;;;;;;;;;;6244678;23;20011;-64
2022/11/27 05:51:58;;;;;;;21.58;4.50;;;;;;;;;;6244651;23;20330;-64
2022/11/27 05:54:24;;;;;;;17.13;4.15;;;;;;;;;;6243237;23;20031;-64
2022/11/27 05:56:50;;;;;;;25.45;3.80;;;;;;;;;;6243864;23;20015;-63
2022/11/27 05:59:16;;;;;;;23.90;4.07;;;;;;;;;;6243531;23;20008;-64
2022/11/27 06:01:42;;;;;;;27.23;4.35;;;;;;;;;;6243494;23;20091;-63
2022/11/27 06:04:08;;;;;;;22.33;4.05;;;;;;;;;;6243270;23;20118;-64
2022/11/27 06:06:35;;;;;;;18.15;3.97;;;;;;;;;;6242800;23;20049;-63
2022/11/27 06:09:01;;;;;;;17.25;3.63;;;;;;;;;;6243490;23;20011;-63
2022/11/27 06:11:27;;;;;;;29.27;3.78;;;;;;;;;;6243379;23;20004;-64
2022/11/27 06:13:53;;;;;;;22.05;4.35;;;;;;;;;;6243423;23;20119;-63
2022/11/27 06:16:20;;;;;;;26.55;4.85;;;;;;;;;;6243650;23;20091;-64
2022/11/27 06:18:50;;;;;;;25.08;3.97;;;;;;;;;;6242853;23;20004;-64
2022/11/27 06:21:16;;;;;;;20.80;4.40;;;;;;;;;;6243207;23;20011;-64
2022/11/27 06:23:43;;;;;;;21.60;3.60;;;;;;;;;;6243064;23;20004;-64
2022/11/27 06:26:14;;;;;;;19.20;3.83;;;;;;;;;;6243321;23;20012;-64
2022/11/27 06:28:40;;;;;;;20.95;3.47;;;;;;;;;;6242664;23;20004;-64
2022/11/27 06:31:07;;;;;;;27.38;3.67;;;;;;;;;;6243376;23;20028;-64
2022/11/27 06:33:33;;;;;;;22.90;5.97;;;;;;;;;;6243212;23;20008;-63
2022/11/27 06:36:00;;;;;;;24.38;4.35;;;;;;;;;;6242863;22;20004;-63
2022/11/27 06:38:26;;;;;;;13.25;3.33;;;;;;;;;;6243871;23;20315;-64
2022/11/27 06:40:52;;;;;;;25.65;3.75;;;;;;;;;;6243203;23;20008;-64
2022/11/27 06:43:18;;;;;;;19.30;3.35;;;;;;;;;;6243143;23;20078;-64
2022/11/27 06:45:44;;;;;;;16.15;3.03;;;;;;;;;;6243290;23;20001;-63
2022/11/27 06:48:10;;;;;;;22.35;3.97;;;;;;;;;;6242742;23;20008;-63
2022/11/27 06:50:36;;;;;;;13.48;2.85;;;;;;;;;;6243070;23;20450;-64
2022/11/27 06:53:02;;;;;;;11.38;3.22;;;;;;;;;;6243731;23;20499;-63
2022/11/27 06:55:28;;;;;;;16.40;2.92;;;;;;;;;;6243371;23;20000;-63
2022/11/27 06:57:54;;;;;;;17.60;2.75;;;;;;;;;;6242682;23;20008;-63
2022/11/27 07:00:20;;;;;;;9.52;2.85;;;;;;;;;;6243440;23;20448;-63
2022/11/27 07:02:47;;;;;;;15.15;3.63;;;;;;;;;;6242398;23;20019;-63
2022/11/27 07:05:13;;;;;;;17.42;3.67;;;;;;;;;;6243617;23;20019;-63
2022/11/27 07:07:39;;;;;;;7.13;2.60;;;;;;;;;;6243048;23;20435;-63
2022/11/27 07:10:05;;;;;;;21.33;2.90;;;;;;;;;;6243061;23;20011;-63
2022/11/27 07:12:33;;;;;;;18.90;3.53;;;;;;;;;;6243764;22;20074;-63
2022/11/27 07:14:59;;;;;;;10.70;2.65;;;;;;;;;;6242323;23;20381;-63
2022/11/27 07:17:25;;;;;;;11.40;2.63;;;;;;;;;;6242719;23;20011;-63
2022/11/27 07:19:51;;;;;;;13.00;2.90;;;;;;;;;;6242825;23;20000;-63
2022/11/27 07:22:17;;;;;;;18.20;3.20;;;;;;;;;;6243211;23;20000;-64
2022/11/27 07:24:43;;;;;;;13.38;2.88;;;;;;;;;;6242696;23;20008;-63
2022/11/27 07:27:09;;;;;;;16.02;3.13;;;;;;;;;;6243207;23;20075;-63
2022/11/27 07:29:35;;;;;;;17.95;3.00;;;;;;;;;;6242996;23;20089;-63
2022/11/27 07:32:01;;;;;;;20.50;3.25;;;;;;;;;;6242291;23;20007;-64
2022/11/27 07:34:27;;;;;;;12.27;2.67;;;;;;;;;;6242864;23;20027;-64
2022/11/27 07:36:53;;;;;;;12.73;2.95;;;;;;;;;;6242540;23;20000;-63
2022/11/27 07:39:20;;;;;;;13.07;2.60;;;;;;;;;;6242729;23;20008;-64
2022/11/27 07:41:46;;;;;;;12.93;2.80;;;;;;;;;;6242889;23;20015;-63
2022/11/27 07:44:12;;;;;;;12.10;2.53;;;;;;;;;;6242631;23;20004;-63
2022/11/27 07:46:38;;;;;;;17.35;2.67;;;;;;;;;;6242412;23;20032;-64
2022/11/27 07:49:04;;;;;;;9.93;2.60;;;;;;;;;;6242472;22;20016;-64
2022/11/27 07:51:30;;;;;;;12.05;2.47;;;;;;;;;;6242814;23;20015;-64
2022/11/27 07:53:56;;;;;;;11.13;2.35;;;;;;;;;;6242431;23;20004;-63
2022/11/27 07:56:22;;;;;;;14.13;3.00;;;;;;;;;;6243845;23;20458;-64
2022/11/27 07:58:48;;;;;;;12.93;3.17;;;;;;;;;;6243407;23;20004;-63
2022/11/27 08:01:16;;;;;;;12.07;2.65;;;;;;;;;;6243496;23;20007;-63
2022/11/27 08:03:43;;;;;;;13.95;2.75;;;;;;;;;;6243750;23;20039;-64
2022/11/27 08:06:15;;;;;;;5.55;2.15;;;;;;;;;;6243352;22;20012;-63
2022/11/27 08:08:41;;;;;;;8.10;2.53;;;;;;;;;;6242936;22;20008;-64
2022/11/27 08:11:13;;;;;;;10.23;2.50;;;;;;;;;;6244136;23;20431;-64
2022/11/27 08:13:39;;;;;;;;;;;;;;;;;;6245543;23;20014;-64
2022/11/27 08:16:06;;;;;;;8.50;2.25;;;;;;;;;;6243613;23;20283;-64
2022/11/27 08:18:32;;;;;;;6.95;2.42;;;;;;;;;;6244730;23;20015;-64
2022/11/27 08:20:59;;;;;;;12.63;2.92;;;;;;;;;;6244005;23;20004;-64
2022/11/27 08:23:25;;;;;;;14.75;2.53;;;;;;;;;;6244413;23;20011;-64
2022/11/27 08:25:51;;;;;;;11.85;2.70;;;;;;;;;;6244432;23;20060;-63
2022/11/27 08:28:17;;;;;;;16.00;2.38;;;;;;;;;;6244939;23;20450;-64
2022/11/27 08:30:43;;;;;;;5.88;1.98;;;;;;;;;;6243884;23;20000;-63
2022/11/27 08:33:12;;;;;;;10.73;2.20;;;;;;;;;;6245351;23;20066;-63
2022/11/27 08:35:38;;;;;;;16.98;3.67;;;;;;;;;;6245816;23;20023;-63
2022/11/27 08:38:04;;;;;;;7.55;2.35;;;;;;;;;;6245121;23;20066;-64
2022/11/27 08:40:30;;;;;;;8.15;2.53;;;;;;;;;;6245519;23;20004;-63
2022/11/27 08:42:58;;;;;;;10.50;2.53;;;;;;;;;;6245085;23;20020;-64
2022/11/27 08:45:24;;;;;;;17.70;2.95;;;;;;;;;;6244688;22;20418;-64
2022/11/27 08:47:50;;;;;;;18.85;2.35;;;;;;;;;;6245479;23;20015;-64
2022/11/27 08:50:16;;;;;;;13.88;2.40;;;;;;;;;;6245226;23;20004;-64
2022/11/27 08:52:42;;;;;;;10.23;2.22;;;;;;;;;;6245823;23;20008;-63
2022/11/27 08:55:08;;;;;;;12.93;1.92;;;;;;;;;;6245500;23;20004;-63
2022/11/27 08:57:35;;;;;;;5.93;1.70;;;;;;;;;;6245794;23;20009;-64
2022/11/27 09:00:01;;;;;;;17.73;2.70;;;;;;;;;;6245731;22;20004;-64
2022/11/27 09:02:27;;;;;;;16.73;2.53;;;;;;;;;;6244741;23;20058;-64
2022/11/27 09:04:53;;;;;;;10.38;2.30;;;;;;;;;;6244158;23;20441;-63
2022/11/27 09:07:19;;;;;;;14.43;2.40;;;;;;;;;;6244863;23;20008;-64
2022/11/27 09:09:45;;;;;;;26.60;10.27;;;;;;;;;;6244994;23;20067;-64
2022/11/27 09:12:12;;;;;;;27.77;12.25;;;;;;;;;;6244516;23;20147;-64
2022/11/27 09:14:38;;;;;;;31.90;14.07;;;;;;;;;;6244499;22;20074;-63
2022/11/27 09:17:04;;;;;;;45.45;20.65;;;;;;;;;;6244762;22;20008;-63
2022/11/27 09:19:30;;;;;;;55.95;23.73;;;;;;;;;;6245528;23;20506;-63
2022/11/27 09:21:57;;;;;;;30.45;10.63;;;;;;;;;;6244406;23;20480;-64
2022/11/27 09:24:23;;;;;;;19.15;5.80;;;;;;;;;;6245017;23;20011;-63
2022/11/27 09:26:49;;;;;;;16.60;4.80;;;;;;;;;;6245181;22;20004;-64
2022/11/27 09:29:15;;;;;;;59.92;24.15;;;;;;;;;;6241946;23;20000;-64
2022/11/27 09:31:41;;;;;;;55.90;25.08;;;;;;;;;;6244848;23;20004;-64
2022/11/27 09:34:08;;;;;;;38.38;15.27;;;;;;;;;;6244771;23;20000;-64
2022/11/27 09:36:34;;;;;;;30.50;11.45;;;;;;;;;;6244397;23;20008;-63
2022/11/27 09:39:02;;;;;;;33.30;8.98;;;;;;;;;;6245252;23;20003;-64
2022/11/27 09:41:32;;;;;;;18.10;7.82;;;;;;;;;;6244670;22;20004;-64
2022/11/27 09:44:03;;;;;;;31.85;11.68;;;;;;;;;;6244088;22;20012;-64
2022/11/27 09:46:31;;;;;;;32.90;13.52;;;;;;;;;;6243943;23;20454;-63
2022/11/27 09:48:59;;;;;;;27.38;12.02;;;;;;;;;;6245182;23;20426;-64
2022/11/27 09:51:46;;;;;;;23.08;12.70;;;;;;;;;;6243833;23;20395;-64
2022/11/27 09:54:18;;;;;;;19.00;8.38;;;;;;;;;;6122304;23;20014;-64
2022/11/27 09:56:47;;;;;;;20.23;7.70;;;;;;;;;;6122121;23;20017;-64
2022/11/27 09:59:18;;;;;;;25.38;8.30;;;;;;;;;;6122387;23;20017;-64
2022/11/27 10:01:44;;;;;;;19.85;7.38;;;;;;;;;;6121753;23;20044;-63
2022/11/27 10:04:11;;;;;;;23.17;6.55;;;;;;;;;;6121693;23;20049;-64
2022/11/27 10:06:46;;;;;;;17.00;6.63;;;;;;;;;;6121760;23;20021;-64
2022/11/27 10:09:12;;;;;;;28.35;7.57;;;;;;;;;;6121773;23;20010;-64
2022/11/27 10:11:51;;;;;;;17.20;7.00;;;;;;;;;;6121452;23;20072;-64
2022/11/27 10:14:26;;;;;;;14.18;6.22;;;;;;;;;;6094612;23;20493;-64
2022/11/27 10:16:57;;;;;;;14.63;6.47;;;;;;;;;;6119930;23;20014;-64
2022/11/27 10:19:35;;;;;;;23.50;8.32;;;;;;;;;;6119474;23;20014;-64
2022/11/27 10:22:02;;;;;;;25.00;9.10;;;;;;;;;;6120662;23;20014;-64
2022/11/27 10:24:35;;;;;;;22.40;7.88;;;;;;;;;;6120272;23;20006;-64
2022/11/27 10:27:01;;;;;;;15.30;6.60;;;;;;;;;;6119738;23;20392;-64
2022/11/27 10:29:33;;;;;;;18.48;6.45;;;;;;;;;;6119962;23;20357;-64
2022/11/27 10:32:23;;;;;;;23.10;7.13;;;;;;;;;;6217809;23;20080;-64
2022/11/27 10:34:57;;;;;;;16.27;6.05;;;;;;;;;;6227061;22;20004;-64
2022/11/27 10:37:26;;;;;;;18.80;6.50;;;;;;;;;;6242648;23;20000;-64
2022/11/27 10:40:05;;;;;;;17.80;7.60;;;;;;;;;;6241513;23;20014;-64
2022/11/27 10:42:36;;;;;;;15.95;6.40;;;;;;;;;;6242374;23;20422;-64
2022/11/27 10:45:05;;;;;;;21.27;5.57;;;;;;;;;;6241888;23;20012;-64
2022/11/27 10:47:31;;;;;;;18.73;6.63;;;;;;;;;;6242298;23;20046;-64
2022/11/27 10:49:58;;;;;;;14.88;6.93;;;;;;;;;;6242160;23;20007;-64
2022/11/27 10:52:24;;;;;;;19.17;7.72;;;;;;;;;;6242314;23;20023;-64
2022/11/27 10:54:53;;;;;;;24.38;11.80;;;;;;;;;;6242276;23;20516;-64
2022/11/27 10:57:39;;;;;;;22.80;10.82;;;;;;;;;;6243342;23;20004;-64
2022/11/27 11:00:13;;;;;;;15.15;5.60;;;;;;;;;;6243880;23;20004;-64
2022/11/27 11:02:39;;;;;;;12.15;5.22;;;;;;;;;;6243652;22;20004;-64
2022/11/27 11:05:25;;;;;;;20.48;5.72;;;;;;;;;;6242706;23;20026;-64
2022/11/27 11:07:55;;;;;;;13.43;3.97;;;;;;;;;;6243220;23;20001;-64
2022/11/27 11:10:26;;;;;;;10.52;3.95;;;;;;;;;;6243060;22;20081;-64
2022/11/27 11:13:11;;;;;;;7.82;3.70;;;;;;;;;;6243014;23;20004;-64
2022/11/27 11:16:12;;;;;;;14.82;5.32;;;;;;;;;;6243281;23;20065;-64
2022/11/27 11:18:43;;;;;;;15.95;6.60;;;;;;;;;;6119644;23;20010;-64
2022/11/27 11:21:24;;;;;;;12.20;3.90;;;;;;;;;;6120542;23;20353;-64
2022/11/27 11:23:57;;;;;;;11.95;4.75;;;;;;;;;;6117197;23;20017;-64
2022/11/27 11:26:28;;;;;;;16.80;3.83;;;;;;;;;;6119066;23;20121;-64
2022/11/27 11:28:56;;;;;;;12.75;4.60;;;;;;;;;;6118857;23;20049;-64
2022/11/27 11:31:27;;;;;;;14.98;3.38;;;;;;;;;;6119100;23;20017;-64
2022/11/27 11:33:58;;;;;;;16.05;6.88;;;;;;;;;;6119002;23;20018;-64
2022/11/27 11:36:24;;;;;;;21.30;11.25;;;;;;;;;;6119694;23;20059;-64
2022/11/27 11:38:50;;;;;;;23.77;11.32;;;;;;;;;;6118360;23;20794;-64
2022/11/27 11:41:17;;;;;;;16.80;9.18;;;;;;;;;;6119388;23;20014;-64
2022/11/27 11:44:00;;;;;;;16.30;7.60;;;;;;;;;;6119052;23;20010;-64
2022/11/27 11:46:32;;;;;;;12.27;5.30;;;;;;;;;;6096344;23;20365;-64
2022/11/27 11:49:01;;;;;;;10.32;5.18;;;;;;;;;;6118907;23;20032;-64
2022/11/27 11:51:47;;;;;;;21.92;12.15;;;;;;;;;;6121512;23;20025;-64
2022/11/27 11:54:25;;;;;;;14.52;8.38;;;;;;;;;;6240821;23;20371;-64
2022/11/27 11:56:51;;;;;;;20.73;7.30;;;;;;;;;;6241456;23;20008;-64
2022/11/27 11:59:27;;;;;;;16.67;5.32;;;;;;;;;;6242672;23;20004;-64
2022/11/27 12:02:13;;;;;;;30.88;17.05;;;;;;;;;;6243357;23;20004;-64
2022/11/27 12:04:56;;;;;;;39.75;21.63;;;;;;;;;;6242355;23;20342;-64
2022/11/27 12:07:22;;;;;;;21.63;12.57;;;;;;;;;;6242810;23;20016;-64
2022/11/27 12:09:56;;;;;;;21.55;10.38;;;;;;;;;;6243185;23;20036;-64
2022/11/27 12:12:27;;;;;;;13.90;7.00;;;;;;;;;;6243034;23;20422;-64
2022/11/27 12:14:56;;;;;;;13.02;6.40;;;;;;;;;;6242691;23;20012;-64
2022/11/27 12:17:38;;;;;;;11.07;6.63;;;;;;;;;;6243418;23;20000;-64
2022/11/27 12:20:18;;;;;;;12.13;5.22;;;;;;;;;;6243558;23;20442;-64
2022/11/27 12:22:52;;;;;;;12.63;7.20;;;;;;;;;;6243762;22;20008;-64
2022/11/27 12:25:18;;;;;;;14.00;6.60;;;;;;;;;;6244180;23;20435;-64
2022/11/27 12:28:02;;;;;;;17.83;5.03;;;;;;;;;;6243344;23;20442;-64
2022/11/27 12:30:47;;;;;;;12.60;6.90;;;;;;;;;;6244128;23;20032;-64
2022/11/27 12:33:19;;;;;;;13.55;6.72;;;;;;;;;;6244237;23;20008;-64
2022/11/27 12:36:08;;;;;;;13.05;6.82;;;;;;;;;;6244204;23;20400;-65
2022/11/27 12:38:40;;;;;;;23.95;14.77;;;;;;;;;;6122142;23;20013;-64
2022/11/27 12:41:25;;;;;;;13.68;6.93;;;;;;;;;;6121331;23;20024;-65
2022/11/27 12:43:54;;;;;;;12.15;5.35;;;;;;;;;;6121570;23;20014;-65
2022/11/27 12:46:23;;;;;;;7.68;3.80;;;;;;;;;;6122007;23;20005;-64
2022/11/27 12:48:53;;;;;;;14.48;5.57;;;;;;;;;;6122019;23;20013;-64
2022/11/27 12:51:21;;;;;;;10.18;5.68;;;;;;;;;;6120981;23;20006;-64
2022/11/27 12:53:54;;;;;;;9.93;4.22;;;;;;;;;;6096042;23;20353;-65
2022/11/27 12:56:23;;;;;;;10.65;4.68;;;;;;;;;;6119792;23;20437;-65
2022/11/27 12:58:58;;;;;;;12.25;5.55;;;;;;;;;;6121473;23;20360;-64
2022/11/27 13:01:33;;;;;;;15.32;5.28;;;;;;;;;;6121571;23;20010;-65
2022/11/27 13:04:05;;;;;;;13.77;5.35;;;;;;;;;;6121135;23;20013;-64
2022/11/27 13:06:34;;;;;;;10.13;5.28;;;;;;;;;;6120610;23;20018;-64
2022/11/27 13:09:13;;;;;;;16.27;5.05;;;;;;;;;;6120275;23;20076;-65
2022/11/27 13:11:40;;;;;;;8.38;4.45;;;;;;;;;;6120519;23;20014;-64
2022/11/27 13:14:18;;;;;;;11.52;5.20;;;;;;;;;;6119854;23;20045;-65
2022/11/27 13:16:46;;;;;;;7.85;4.43;;;;;;;;;;6240647;23;20091;-65
2022/11/27 13:19:12;;;;;;;9.98;5.20;;;;;;;;;;6242078;23;20004;-64
2022/11/27 13:21:39;;;;;;;7.30;4.32;;;;;;;;;;6242134;23;20027;-65
2022/11/27 13:24:05;;;;;;;6.40;3.63;;;;;;;;;;6242557;22;20012;-64
2022/11/27 13:26:36;;;;;;;3.50;2.42;;;;;;;;;;6239915;23;20008;-65
2022/11/27 13:29:04;;;;;;;5.80;1.95;;;;;;;;;;6240650;23;20015;-64
2022/11/27 13:31:38;;;;;;;4.85;2.15;;;;;;;;;;6239418;23;20004;-64
2022/11/27 13:34:07;;;;;;;5.25;2.60;;;;;;;;;;6240324;22;20004;-64
2022/11/27 13:36:38;;;;;;;6.90;2.40;;;;;;;;;;6239452;22;20008;-64
2022/11/27 13:39:04;;;;;;;7.32;3.08;;;;;;;;;;6242933;23;20043;-64
2022/11/27 13:41:32;;;;;;;11.18;3.10;;;;;;;;;;6241980;23;20008;-64
2022/11/27 13:43:59;;;;;;;7.85;3.00;;;;;;;;;;6242702;23;20011;-64
2022/11/27 13:46:26;;;;;;;8.15;2.80;;;;;;;;;;6242733;23;20024;-64
2022/11/27 13:48:59;;;;;;;9.98;2.40;;;;;;;;;;6242017;22;20008;-64
2022/11/27 13:51:25;;;;;;;;;;;;;;;;;;6242558;22;20015;-64
2022/11/27 13:53:51;;;;;;;8.88;2.15;;;;;;;;;;6242161;23;20288;-64
2022/11/27 13:56:27;;;;;;;9.93;2.85;;;;;;;;;;6242145;23;20058;-64
2022/11/27 13:58:53;;;;;;;9.35;4.15;;;;;;;;;;6242189;23;20047;-66
2022/11/27 14:01:23;;;;;;;9.40;4.93;;;;;;;;;;6242710;23;20018;-66
2022/11/27 14:03:50;;;;;;;9.68;3.42;;;;;;;;;;6242678;23;20015;-65
2022/11/27 14:06:22;;;;;;;6.43;2.30;;;;;;;;;;6242838;23;20008;-65
2022/11/27 14:09:01;;;;;;;9.20;4.28;;;;;;;;;;6242643;23;20087;-66
2022/11/27 14:11:35;;;;;;;11.93;5.90;;;;;;;;;;6243087;23;20342;-66
2022/11/27 14:14:10;;;;;;;19.20;4.38;;;;;;;;;;6242857;23;20019;-66
2022/11/27 14:16:37;;;;;;;11.52;5.00;;;;;;;;;;6241473;23;20499;-66
2022/11/27 14:19:05;;;;;;;15.43;4.18;;;;;;;;;;6242963;22;20004;-66
2022/11/27 14:21:39;;;;;;;24.27;6.47;;;;;;;;;;6242923;23;20039;-66
2022/11/27 14:24:24;;;;;;;20.23;6.57;;;;;;;;;;6243267;23;20401;-65
2022/11/27 14:26:50;;;;;;;19.27;6.10;;;;;;;;;;6242831;22;20012;-65
2022/11/27 14:29:19;;;;;;;28.38;7.07;;;;;;;;;;6243155;23;19996;-65
2022/11/27 14:31:45;;;;;;;27.30;8.82;;;;;;;;;;6243720;22;20006;-65
2022/11/27 14:34:24;;;;;;;29.80;6.90;;;;;;;;;;6242303;23;20008;-65
2022/11/27 14:36:54;;;;;;;24.40;5.65;;;;;;;;;;6242735;23;20028;-65
2022/11/27 14:39:40;;;;;;;20.23;6.55;;;;;;;;;;6243568;23;20012;-66
2022/11/27 14:42:07;;;;;;;26.02;7.10;;;;;;;;;;6243524;22;20095;-66
2022/11/27 14:44:33;;;;;;;25.20;6.68;;;;;;;;;;6239755;23;20008;-65